createdAt,value
2019-02-25T05:00:33.639Z,0
2019-02-25T05:04:01.521Z,0
2019-02-25T05:07:29.480Z,0
2019-02-25T05:10:57.458Z,0
2019-02-25T05:14:25.390Z,0
2019-02-25T05:17:53.585Z,0
2019-02-25T05:21:22.517Z,0
2019-02-25T05:24:50.504Z,0
2019-02-25T05:28:18.521Z,0
2019-02-25T05:31:47.428Z,0
2019-02-25T05:35:15.378Z,0
2019-02-25T05:38:43.318Z,0
2019-02-25T05:42:11.388Z,0
2019-02-25T05:45:40.378Z,0
2019-02-25T05:49:08.333Z,0
2019-02-25T05:52:36.251Z,0
2019-02-25T05:56:04.328Z,0
2019-02-25T05:59:33.304Z,0
2019-02-25T06:03:01.327Z,0
2019-02-25T06:06:29.299Z,0
2019-02-25T06:09:57.344Z,0
2019-02-25T06:13:25.289Z,0
2019-02-25T06:16:53.315Z,0
2019-02-25T06:20:21.266Z,0
2019-02-25T06:23:49.165Z,0
2019-02-25T06:27:17.161Z,5.625
2019-02-25T06:30:45.723Z,5.625
2019-02-25T06:34:14.682Z,5.625
2019-02-25T06:37:42.584Z,11.25
2019-02-25T06:41:10.561Z,11.25
2019-02-25T06:44:38.440Z,11.25
2019-02-25T06:48:06.483Z,16.875
2019-02-25T06:51:35.398Z,22.5
2019-02-25T06:55:03.358Z,22.5
2019-02-25T06:58:32.278Z,22.5
2019-02-25T07:02:00.293Z,28.125
2019-02-25T07:05:28.266Z,28.125
2019-02-25T07:08:56.147Z,28.125
2019-02-25T07:12:24.085Z,33.75
2019-02-25T07:15:52.284Z,33.75
2019-02-25T07:19:20.303Z,33.75
2019-02-25T07:22:49.213Z,33.75
2019-02-25T07:26:18.220Z,33.75
2019-02-25T07:29:46.123Z,39.375
2019-02-25T07:33:14.088Z,45
2019-02-25T07:36:42.138Z,45
2019-02-25T07:40:10.053Z,50.625
2019-02-25T07:43:37.978Z,56.25
2019-02-25T07:47:05.889Z,61.875
2019-02-25T07:50:33.778Z,56.25
2019-02-25T07:54:01.746Z,67.5
2019-02-25T07:57:29.618Z,50.625
2019-02-25T08:00:57.666Z,56.25
2019-02-25T08:04:26.676Z,73.125
2019-02-25T08:07:54.580Z,67.5
2019-02-25T08:11:23.496Z,73.125
2019-02-25T08:14:51.422Z,61.875
2019-02-25T08:18:19.346Z,61.875
2019-02-25T08:21:47.306Z,73.125
2019-02-25T08:25:15.360Z,78.75
2019-02-25T08:28:43.231Z,78.75
2019-02-25T08:32:12.107Z,84.375
2019-02-25T08:35:40.101Z,73.125
2019-02-25T08:39:08.010Z,78.75
2019-02-25T08:42:35.904Z,106.875
2019-02-25T08:46:03.932Z,112.5
2019-02-25T08:49:31.978Z,118.125
2019-02-25T08:53:00.034Z,135
2019-02-25T08:56:28.093Z,118.125
2019-02-25T08:59:56.026Z,118.125
2019-02-25T09:03:25.066Z,129.375
2019-02-25T09:06:53.013Z,157.5
2019-02-25T09:10:20.972Z,151.875
2019-02-25T09:13:49.879Z,135
2019-02-25T09:17:19.112Z,157.5
2019-02-25T09:20:47.112Z,146.25
2019-02-25T09:24:15.060Z,118.125
2019-02-25T09:27:43.174Z,146.25
2019-02-25T09:31:11.207Z,140.625
2019-02-25T09:34:39.149Z,163.125
2019-02-25T09:38:07.084Z,163.125
2019-02-25T09:41:34.984Z,146.25
2019-02-25T09:45:03.023Z,118.125
2019-02-25T09:48:31.033Z,112.5
2019-02-25T09:51:59.017Z,123.75
2019-02-25T09:55:28.114Z,129.375
2019-02-25T09:58:56.069Z,140.625
2019-02-25T10:02:25.011Z,112.5
2019-02-25T10:05:53.033Z,135
2019-02-25T10:09:29.472Z,151.875
2019-02-25T10:12:51.912Z,135
2019-02-25T10:16:19.848Z,135
2019-02-25T10:19:47.820Z,123.75
2019-02-25T10:23:15.767Z,135
2019-02-25T10:26:43.673Z,135
2019-02-25T10:30:11.808Z,146.25
2019-02-25T10:33:39.796Z,146.25
2019-02-25T10:37:08.945Z,151.875
2019-02-25T10:40:38.613Z,140.625
2019-02-25T10:44:09.525Z,135
2019-02-25T10:47:39.427Z,129.375
2019-02-25T10:51:14.194Z,135
2019-02-25T10:54:43.125Z,140.625
2019-02-25T10:58:11.135Z,146.25
2019-02-25T11:01:43.350Z,151.875
2019-02-25T11:05:12.966Z,168.75
2019-02-25T11:08:45.703Z,725.625
2019-02-25T11:12:13.564Z,500.625
2019-02-25T11:15:46.528Z,219.375
2019-02-25T11:19:14.474Z,219.375
2019-02-25T11:22:48.328Z,1018.125
2019-02-25T11:26:15.554Z,1057.5
2019-02-25T11:29:48.430Z,798.75
2019-02-25T11:33:16.418Z,219.375
2019-02-25T11:36:44.477Z,230.625
2019-02-25T11:40:13.448Z,883.125
2019-02-25T11:43:43.029Z,967.5
2019-02-25T11:47:13.392Z,354.375
2019-02-25T11:50:41.351Z,275.625
2019-02-25T11:54:10.328Z,1693.125
2019-02-25T11:57:39.316Z,1878.75
2019-02-25T12:01:07.444Z,1878.75
2019-02-25T12:04:35.480Z,1811.25
2019-02-25T12:08:03.415Z,1968.75
2019-02-25T12:11:32.387Z,1451.25
2019-02-25T12:15:00.336Z,1884.375
2019-02-25T12:18:28.642Z,1946.25
2019-02-25T12:21:56.761Z,2165.625
2019-02-25T12:25:24.964Z,2244.375
2019-02-25T12:28:52.972Z,2261.25
2019-02-25T12:32:20.979Z,2407.5
2019-02-25T12:35:50.000Z,2486.25
2019-02-25T12:39:18.952Z,2306.25
2019-02-25T12:42:47.210Z,2475
2019-02-25T12:46:15.356Z,2463.75
2019-02-25T12:49:43.341Z,2610
2019-02-25T12:53:11.350Z,2677.5
2019-02-25T12:56:40.476Z,2700
2019-02-25T13:00:08.400Z,2289.375
2019-02-25T13:03:36.476Z,2638.125
2019-02-25T13:07:04.467Z,2430
2019-02-25T13:10:32.501Z,2109.375
2019-02-25T13:14:00.655Z,2469.375
2019-02-25T13:17:28.581Z,2047.5
2019-02-25T13:20:56.538Z,1080
2019-02-25T13:24:24.707Z,303.75
2019-02-25T13:27:58.728Z,264.375
2019-02-25T13:31:28.524Z,219.375
2019-02-25T13:34:56.737Z,208.125
2019-02-25T13:38:24.816Z,185.625
2019-02-25T13:41:52.823Z,174.375
2019-02-25T13:45:20.764Z,185.625
2019-02-25T13:48:48.732Z,185.625
2019-02-25T13:52:16.737Z,191.25
2019-02-25T13:55:44.647Z,213.75
2019-02-25T13:59:12.592Z,241.875
2019-02-25T14:02:40.605Z,286.875
2019-02-25T14:06:08.527Z,331.875
2019-02-25T14:09:36.527Z,281.25
2019-02-25T14:13:04.577Z,202.5
2019-02-25T14:16:33.544Z,146.25
2019-02-25T14:20:01.530Z,140.625
2019-02-25T14:23:29.539Z,168.75
2019-02-25T14:26:58.533Z,180
2019-02-25T14:30:26.547Z,157.5
2019-02-25T14:33:56.566Z,140.625
2019-02-25T14:37:24.534Z,118.125
2019-02-25T14:40:56.846Z,95.625
2019-02-25T14:44:27.942Z,90
2019-02-25T14:48:02.467Z,78.75
2019-02-25T14:51:31.516Z,73.125
2019-02-25T14:55:04.080Z,73.125
2019-02-25T14:58:37.819Z,67.5
2019-02-25T15:02:12.380Z,67.5
2019-02-25T15:05:40.398Z,67.5
2019-02-25T15:09:14.040Z,61.875
2019-02-25T15:12:43.209Z,67.5
2019-02-25T15:16:12.287Z,67.5
2019-02-25T15:19:43.251Z,78.75
2019-02-25T15:23:16.393Z,90
2019-02-25T15:26:46.088Z,84.375
2019-02-25T15:30:14.012Z,73.125
2019-02-25T15:33:44.992Z,67.5
2019-02-25T15:37:15.944Z,50.625
2019-02-25T15:40:43.856Z,39.375
2019-02-25T15:44:14.734Z,33.75
2019-02-25T15:47:46.892Z,28.125
2019-02-25T15:51:14.728Z,22.5
2019-02-25T15:54:45.723Z,22.5
2019-02-25T15:58:13.760Z,22.5
2019-02-25T16:01:41.776Z,22.5
2019-02-25T16:05:11.733Z,22.5
2019-02-25T16:08:39.706Z,16.875
2019-02-25T16:12:10.617Z,16.875
2019-02-25T16:15:38.608Z,16.875
2019-02-25T16:19:09.543Z,11.25
2019-02-25T16:22:41.550Z,5.625
2019-02-25T16:26:13.476Z,5.625
2019-02-25T16:29:42.872Z,5.625
2019-02-25T16:33:14.859Z,0
2019-02-25T16:36:44.818Z,0
2019-02-25T16:40:14.773Z,0
2019-02-25T16:43:42.684Z,0
2019-02-25T16:47:15.893Z,0
2019-02-25T16:50:47.835Z,0
2019-02-25T16:54:21.083Z,0
2019-02-25T16:57:51.720Z,0
2019-02-25T17:01:19.669Z,0
2019-02-25T17:04:47.712Z,0
2019-02-25T17:08:16.682Z,0
2019-02-25T17:11:47.707Z,0
2019-02-25T17:15:15.768Z,0
2019-02-25T17:18:46.333Z,0
2019-02-25T17:22:13.688Z,0
2019-02-25T17:25:44.665Z,0
2019-02-25T17:29:12.649Z,0
2019-02-25T17:32:46.484Z,0
2019-02-25T17:36:17.661Z,0
2019-02-25T17:39:45.713Z,0
2019-02-25T17:43:18.266Z,0
2019-02-25T17:46:47.523Z,0
2019-02-25T17:50:16.633Z,0
2019-02-25T17:53:48.177Z,0
2019-02-25T17:57:18.622Z,0
2019-02-25T18:00:46.678Z,0
2019-02-25T18:04:14.666Z,0
2019-02-25T18:07:48.485Z,0
2019-02-25T18:11:20.180Z,0
2019-02-25T18:14:50.539Z,0
2019-02-25T18:18:24.504Z,0
2019-02-25T18:21:51.720Z,0
2019-02-25T18:25:21.721Z,0
2019-02-25T18:28:53.920Z,0
2019-02-25T18:32:21.952Z,0
2019-02-25T18:35:49.923Z,0
2019-02-25T18:39:18.119Z,0
2019-02-25T18:42:48.173Z,0
2019-02-25T18:46:18.921Z,0
2019-02-25T18:49:49.920Z,0
2019-02-25T18:53:24.999Z,0
2019-02-25T18:56:53.717Z,0
2019-02-25T19:00:27.979Z,0
2019-02-25T19:03:59.583Z,0
2019-02-25T19:07:33.208Z,0
2019-02-25T19:11:01.545Z,0
2019-02-25T19:14:33.487Z,0
2019-02-25T19:18:01.527Z,0
2019-02-25T19:21:34.143Z,0
2019-02-25T19:25:01.299Z,0
2019-02-25T19:28:33.202Z,0
2019-02-25T19:32:03.104Z,0
2019-02-25T19:35:37.674Z,0
2019-02-25T19:39:11.645Z,0
2019-02-25T19:42:42.632Z,0
2019-02-25T19:46:13.769Z,0
2019-02-25T19:49:46.038Z,0
2019-02-25T19:53:20.202Z,0
2019-02-25T19:56:51.525Z,0
2019-02-25T20:00:28.107Z,0
2019-02-25T20:03:56.618Z,0
2019-02-25T20:07:31.398Z,0
2019-02-25T20:11:01.527Z,0
2019-02-25T20:14:32.014Z,0
2019-02-25T20:18:01.014Z,0
2019-02-25T20:21:31.883Z,0
2019-02-25T20:25:00.898Z,0
2019-02-25T20:28:30.943Z,0
2019-02-25T20:32:00.904Z,0
2019-02-25T20:35:32.149Z,0
2019-02-25T20:39:00.284Z,0
2019-02-25T20:42:32.726Z,0
2019-02-25T20:46:06.002Z,0
2019-02-25T20:49:35.274Z,0
2019-02-25T20:53:09.059Z,0
2019-02-25T20:56:37.333Z,0
2019-02-25T21:00:09.442Z,0
2019-02-25T21:03:45.752Z,0
2019-02-25T21:07:15.381Z,0
2019-02-25T21:10:43.526Z,0
2019-02-25T21:14:12.644Z,0
2019-02-25T21:17:42.797Z,0
2019-02-25T21:21:16.184Z,0
2019-02-25T21:24:43.726Z,0
2019-02-25T21:28:13.714Z,0
2019-02-25T21:31:45.663Z,0
2019-02-25T21:35:15.707Z,0
2019-02-25T21:38:45.294Z,0
2019-02-25T21:42:20.134Z,0
2019-02-25T21:45:54.759Z,0
2019-02-25T21:49:29.342Z,0
2019-02-25T21:52:58.778Z,0
2019-02-25T21:56:28.712Z,0
2019-02-25T22:00:02.891Z,0
2019-02-25T22:03:30.901Z,0
2019-02-25T22:07:02.926Z,0
2019-02-25T22:10:33.931Z,0
2019-02-25T22:14:01.771Z,0
2019-02-25T22:17:29.741Z,0
2019-02-25T22:20:57.729Z,0
2019-02-25T22:24:31.556Z,0
2019-02-25T22:28:05.295Z,0
2019-02-25T22:31:39.997Z,0
2019-02-25T22:35:14.970Z,0
2019-02-25T22:38:42.795Z,0
2019-02-25T22:42:14.782Z,0
2019-02-25T22:45:44.697Z,0
2019-02-25T22:49:13.662Z,0
2019-02-25T22:52:41.601Z,0
2019-02-25T22:56:15.693Z,0
2019-02-25T22:59:44.483Z,0
